Time;durP1;ratioP1;P1;durP2;ratioP2;P2;SDS_P1;SDS_P2;PMS_P1;PMS_P2;Temp;Humidity;BMP_temperature;BMP_pressure;BME280_temperature;BME280_humidity;BME280_pressure;Samples;Min_cycle;Max_cycle;Signal;HPM_P1;HPM_P2
2022/12/18 00:01:20;;;;;;;10.90;6.00;;;-5.30;99.90;;;;;;4972757;28;20045;-83
2022/12/18 00:03:46;;;;;;;13.95;6.07;;;-5.40;99.90;;;;;;4971125;28;20039;-83
2022/12/18 00:06:13;;;;;;;12.73;5.97;;;-5.40;99.90;;;;;;4964123;28;20040;-83
2022/12/18 00:08:39;;;;;;;10.43;5.72;;;-5.40;99.90;;;;;;5004164;28;20046;-83
2022/12/18 00:11:06;;;;;;;12.23;6.90;;;-5.60;99.90;;;;;;4971661;28;20030;-82
2022/12/18 00:13:31;;;;;;;11.68;6.20;;;-5.60;99.90;;;;;;4988086;28;20556;-84
2022/12/18 00:16:02;;;;;;;10.15;4.68;;;-5.80;99.90;;;;;;4989087;28;20042;-83
2022/12/18 00:18:27;;;;;;;12.27;6.28;;;-5.50;99.90;;;;;;4971603;28;20077;-83
2022/12/18 00:20:53;;;;;;;13.98;6.13;;;-5.20;99.90;;;;;;5001956;28;20396;-84
2022/12/18 00:23:18;;;;;;;14.52;7.75;;;-5.20;99.90;;;;;;4984620;28;20376;-83
2022/12/18 00:25:44;;;;;;;17.08;9.40;;;-5.40;99.90;;;;;;4971884;28;20532;-84
2022/12/18 00:28:10;;;;;;;12.10;7.00;;;-5.60;99.90;;;;;;4971609;28;20027;-84
2022/12/18 00:30:35;;;;;;;15.50;6.75;;;-5.50;99.90;;;;;;5003286;28;20113;-83
2022/12/18 00:33:01;;;;;;;17.33;7.85;;;-5.50;99.90;;;;;;4986476;28;20038;-86
2022/12/18 00:35:26;;;;;;;14.80;7.60;;;-5.20;99.90;;;;;;4977711;28;20038;-84
2022/12/18 00:37:52;;;;;;;14.90;7.03;;;-5.20;99.90;;;;;;4983969;28;20023;-83
2022/12/18 00:40:17;;;;;;;11.00;5.25;;;-5.40;99.90;;;;;;4998216;28;20038;-83
2022/12/18 00:42:55;;;;;;;10.60;5.10;;;-5.10;99.90;;;;;;4984258;28;20026;-83
2022/12/18 00:45:27;;;;;;;11.98;5.50;;;-5.00;99.90;;;;;;4999705;28;20547;-83
2022/12/18 00:47:53;;;;;;;11.95;4.63;;;-5.00;99.90;;;;;;4994946;28;20144;-83
2022/12/18 00:50:19;;;;;;;14.75;6.07;;;-5.00;99.90;;;;;;4994800;28;20121;-83
2022/12/18 00:52:45;;;;;;;10.10;4.72;;;-5.00;99.90;;;;;;5002749;28;20394;-83
2022/12/18 00:55:10;;;;;;;11.88;5.05;;;-5.10;99.90;;;;;;4964922;28;20034;-81
2022/12/18 00:57:36;;;;;;;9.57;4.65;;;-5.10;99.90;;;;;;4997574;28;20378;-83
2022/12/18 01:00:02;;;;;;;12.00;5.25;;;-5.00;99.90;;;;;;4974909;28;20042;-84
2022/12/18 01:02:28;;;;;;;8.30;4.78;;;-5.00;99.90;;;;;;4984696;28;20034;-83
2022/12/18 01:04:54;;;;;;;10.80;5.22;;;-4.90;99.90;;;;;;5000992;28;20076;-83
2022/12/18 01:07:19;;;;;;;8.85;4.68;;;-5.00;99.90;;;;;;4983558;28;20034;-83
2022/12/18 01:09:45;;;;;;;8.65;4.43;;;-5.00;99.90;;;;;;4987344;28;20448;-83
2022/12/18 01:12:10;;;;;;;12.52;4.25;;;-5.00;99.90;;;;;;4969177;28;20034;-82
2022/12/18 01:14:37;;;;;;;9.77;4.55;;;-4.90;99.90;;;;;;4996452;28;20413;-83
2022/12/18 01:17:03;;;;;;;8.85;3.78;;;-4.90;99.90;;;;;;4966748;28;20053;-83
2022/12/18 01:19:29;;;;;;;12.25;5.10;;;-4.90;99.90;;;;;;4981799;28;20064;-83
2022/12/18 01:21:54;;;;;;;8.02;4.18;;;-4.90;99.90;;;;;;4969038;28;20038;-83
2022/12/18 01:24:20;;;;;;;10.95;5.60;;;-4.80;99.90;;;;;;4983849;28;20411;-83
2022/12/18 01:26:45;;;;;;;7.53;4.25;;;-4.70;99.90;;;;;;4966380;28;20035;-82
2022/12/18 01:29:11;;;;;;;10.20;4.63;;;-4.80;99.90;;;;;;4969029;28;20042;-77
2022/12/18 01:31:37;;;;;;;14.10;4.43;;;-4.80;99.90;;;;;;4966872;28;20038;-77
2022/12/18 01:34:03;;;;;;;7.80;3.83;;;-4.70;99.90;;;;;;4967401;28;20031;-83
2022/12/18 01:36:30;;;;;;;9.05;4.70;;;-4.80;99.90;;;;;;4985029;28;20035;-83
2022/12/18 01:38:56;;;;;;;9.38;4.57;;;-4.70;99.90;;;;;;4969253;28;20043;-84
2022/12/18 01:41:25;;;;;;;7.72;3.35;;;-4.80;99.90;;;;;;4983376;28;20041;-83
2022/12/18 01:43:57;;;;;;;13.40;4.70;;;-4.80;99.90;;;;;;4984165;28;20031;-83
2022/12/18 01:46:26;;;;;;;6.32;2.80;;;-4.60;99.90;;;;;;4965970;28;20037;-83
2022/12/18 01:48:59;;;;;;;10.25;5.20;;;-4.60;99.90;;;;;;4968662;28;20407;-84
2022/12/18 01:51:25;;;;;;;3.88;2.35;;;-4.60;99.90;;;;;;4998476;28;20501;-85
2022/12/18 01:53:51;;;;;;;5.82;3.60;;;-4.60;99.90;;;;;;4970180;28;20038;-84
2022/12/18 01:56:17;;;;;;;6.28;3.60;;;-4.60;99.90;;;;;;4987166;28;20041;-84
2022/12/18 01:58:50;;;;;;;11.40;5.03;;;-4.50;99.90;;;;;;4969407;28;20035;-83
2022/12/18 02:01:15;;;;;;;7.20;3.92;;;-4.50;99.90;;;;;;4973627;28;20557;-84
2022/12/18 02:03:42;;;;;;;5.70;3.40;;;-4.50;99.90;;;;;;4984109;28;20117;-84
2022/12/18 02:06:37;;;;;;;6.40;3.42;;;-4.50;99.90;;;;;;4982732;28;20452;-83
2022/12/18 02:09:06;;;;;;;6.43;3.00;;;-4.40;99.90;;;;;;4997660;28;20064;-84
2022/12/18 02:11:50;;;;;;;6.13;3.15;;;-4.40;99.90;;;;;;5001241;28;20038;-85
2022/12/18 02:14:27;;;;;;;8.02;4.10;;;-4.40;99.90;;;;;;4986765;28;20042;-84
2022/12/18 02:16:58;;;;;;;8.45;3.65;;;-4.40;99.90;;;;;;5002264;28;20034;-84
2022/12/18 02:19:32;;;;;;;9.20;4.80;;;-4.50;99.90;;;;;;4983205;28;20033;-83
2022/12/18 02:22:16;;;;;;;10.93;4.40;;;-4.30;99.90;;;;;;4998453;28;20051;-83
2022/12/18 02:24:53;;;;;;;8.32;3.00;;;-4.40;99.90;;;;;;4999290;28;20479;-84
2022/12/18 02:27:19;;;;;;;7.90;4.28;;;-4.30;99.90;;;;;;5000278;28;20034;-83
2022/12/18 02:29:51;;;;;;;8.82;4.72;;;-4.30;99.90;;;;;;4968701;28;20046;-84
2022/12/18 02:32:25;;;;;;;8.35;4.40;;;-4.30;99.90;;;;;;4969465;28;20034;-84
2022/12/18 02:34:51;;;;;;;7.13;3.88;;;-4.30;99.90;;;;;;4998983;28;20058;-81
2022/12/18 02:37:18;;;;;;;10.60;4.40;;;-4.20;99.90;;;;;;4986317;28;20068;-84
2022/12/18 02:39:44;;;;;;;7.45;4.35;;;-4.20;99.90;;;;;;4952642;28;20037;-82
2022/12/18 02:42:09;;;;;;;5.05;2.72;;;-4.30;99.90;;;;;;4968553;28;20425;-83
2022/12/18 02:44:42;;;;;;;5.93;3.45;;;-4.40;99.90;;;;;;4967827;28;20041;-84
2022/12/18 02:47:09;;;;;;;10.48;5.03;;;-4.20;99.90;;;;;;4953303;28;20410;-85
2022/12/18 02:49:55;;;;;;;4.85;2.88;;;-4.30;99.90;;;;;;4984804;28;20390;-84
2022/12/18 02:52:39;;;;;;;6.90;2.72;;;-4.20;99.90;;;;;;4970050;28;20038;-84
2022/12/18 02:55:11;;;;;;;11.40;5.03;;;-4.20;99.90;;;;;;4999777;28;20683;-85
2022/12/18 02:57:48;;;;;;;10.15;3.83;;;-4.20;99.90;;;;;;4990878;28;20030;-83
2022/12/18 03:00:18;;;;;;;15.38;5.60;;;-4.20;99.90;;;;;;4999683;28;20486;-83
2022/12/18 03:03:06;;;;;;;12.30;6.18;;;-4.20;99.90;;;;;;4985462;28;20092;-82
2022/12/18 03:06:05;;;;;;;9.48;4.68;;;-4.40;99.90;;;;;;5000271;28;20030;-84
2022/12/18 03:08:39;;;;;;;9.70;4.32;;;-4.30;99.90;;;;;;4965910;28;20074;-84
2022/12/18 03:11:08;;;;;;;9.90;4.10;;;-4.30;99.90;;;;;;4969013;28;20113;-83
2022/12/18 03:13:39;;;;;;;9.13;4.15;;;-4.20;99.90;;;;;;4982826;28;20054;-84
2022/12/18 03:16:06;;;;;;;9.02;5.10;;;-4.20;99.90;;;;;;4985169;28;20038;-83
2022/12/18 03:18:55;;;;;;;10.27;4.90;;;-4.20;99.90;;;;;;4985656;28;20065;-85
2022/12/18 03:21:25;;;;;;;10.00;4.65;;;-4.30;99.90;;;;;;4969883;28;20035;-84
2022/12/18 03:23:50;;;;;;;9.60;3.88;;;-4.30;99.90;;;;;;4955988;28;20047;-77
2022/12/18 03:26:18;;;;;;;8.18;4.10;;;-4.30;99.90;;;;;;4967206;28;20034;-77
2022/12/18 03:28:47;;;;;;;10.00;4.53;;;-4.20;99.90;;;;;;4987589;28;20037;-78
2022/12/18 03:31:12;;;;;;;11.18;4.53;;;-4.20;99.90;;;;;;4971803;28;20088;-77
2022/12/18 03:33:41;;;;;;;6.72;4.18;;;-4.20;99.90;;;;;;4970039;28;20494;-79
2022/12/18 03:36:07;;;;;;;6.22;3.45;;;-4.20;99.90;;;;;;4986365;28;20410;-78
2022/12/18 03:38:33;;;;;;;9.43;4.57;;;-4.30;99.90;;;;;;4970607;28;20026;-78
2022/12/18 03:41:00;;;;;;;8.90;4.53;;;-4.40;99.90;;;;;;5004792;28;20502;-77
2022/12/18 03:43:42;;;;;;;12.15;6.03;;;-4.40;99.90;;;;;;5006104;28;20034;-78
2022/12/18 03:46:29;;;;;;;12.07;5.75;;;-4.50;99.90;;;;;;4973656;28;20559;-77
2022/12/18 03:49:06;;;;;;;10.20;5.50;;;-4.50;99.90;;;;;;4968946;28;20409;-77
2022/12/18 03:51:31;;;;;;;8.02;5.00;;;-4.70;99.90;;;;;;4986847;28;20038;-78
2022/12/18 03:54:01;;;;;;;9.00;5.30;;;-4.60;99.90;;;;;;4989790;28;20038;-77
2022/12/18 03:56:33;;;;;;;12.13;6.35;;;-4.50;99.90;;;;;;5005349;28;20118;-77
2022/12/18 03:58:59;;;;;;;9.25;5.28;;;-4.60;99.90;;;;;;4973123;28;20035;-77
2022/12/18 04:01:31;;;;;;;7.85;3.95;;;-4.60;99.90;;;;;;4972915;28;20125;-76
2022/12/18 04:03:58;;;;;;;6.78;4.07;;;-4.70;99.90;;;;;;4952774;28;20039;-77
2022/12/18 04:06:24;;;;;;;9.75;5.32;;;-4.60;99.90;;;;;;4957538;28;20894;-78
2022/12/18 04:08:49;;;;;;;8.55;4.85;;;-4.70;99.90;;;;;;5004811;28;20046;-77
2022/12/18 04:11:15;;;;;;;8.20;4.32;;;-4.80;99.90;;;;;;4973332;28;20030;-77
2022/12/18 04:13:42;;;;;;;13.93;4.95;;;-4.60;99.90;;;;;;4994302;28;20413;-77
2022/12/18 04:16:09;;;;;;;9.27;4.55;;;-4.60;99.90;;;;;;4964711;28;20528;-77
2022/12/18 04:18:35;;;;;;;9.98;4.55;;;-4.50;99.90;;;;;;4987208;28;20042;-77
2022/12/18 04:21:01;;;;;;;8.85;4.80;;;-4.50;99.90;;;;;;5004786;28;20030;-77
2022/12/18 04:23:26;;;;;;;10.55;4.72;;;-4.50;99.90;;;;;;4973464;28;20033;-76
2022/12/18 04:25:52;;;;;;;9.38;4.95;;;-4.60;99.90;;;;;;5001918;28;20478;-77
2022/12/18 04:28:18;;;;;;;8.27;4.55;;;-4.70;99.90;;;;;;5005456;28;20077;-77
2022/12/18 04:30:43;;;;;;;7.78;3.83;;;-4.50;99.90;;;;;;5003862;28;20482;-77
2022/12/18 04:33:10;;;;;;;8.80;4.90;;;-4.50;99.90;;;;;;4970340;28;20054;-77
2022/12/18 04:35:37;;;;;;;7.15;3.80;;;-4.50;99.90;;;;;;4988394;28;20045;-77
2022/12/18 04:38:03;;;;;;;7.10;3.95;;;-4.50;99.90;;;;;;4992651;28;20034;-77
2022/12/18 04:40:28;;;;;;;6.97;3.42;;;-4.50;99.90;;;;;;5004639;28;20030;-78
2022/12/18 04:42:54;;;;;;;10.38;4.18;;;-4.50;99.90;;;;;;4988162;28;20038;-77
2022/12/18 04:45:20;;;;;;;7.60;4.22;;;-4.40;99.90;;;;;;4972035;28;20050;-77
2022/12/18 04:47:45;;;;;;;5.20;3.05;;;-4.40;99.90;;;;;;4970332;28;20406;-78
2022/12/18 04:50:11;;;;;;;10.93;4.25;;;-4.40;99.90;;;;;;4985331;28;20605;-77
2022/12/18 04:52:36;;;;;;;5.07;2.88;;;-4.30;99.90;;;;;;4987678;28;20506;-77
2022/12/18 04:55:04;;;;;;;8.25;3.88;;;-4.30;99.90;;;;;;5002224;28;20546;-77
2022/12/18 04:57:29;;;;;;;5.97;3.45;;;-4.30;99.90;;;;;;4988626;28;20030;-77
2022/12/18 04:59:55;;;;;;;7.55;4.13;;;-4.20;99.90;;;;;;4986285;28;22210;-78
2022/12/18 05:02:20;;;;;;;7.82;3.97;;;-4.30;99.90;;;;;;5004431;28;20033;-77
2022/12/18 05:04:46;;;;;;;10.05;3.67;;;-4.20;99.90;;;;;;4987857;28;20034;-78
2022/12/18 05:07:11;;;;;;;6.43;3.25;;;-4.10;99.90;;;;;;4987982;28;20042;-77
2022/12/18 05:09:37;;;;;;;5.45;3.00;;;-4.10;99.90;;;;;;4986984;28;20093;-77
2022/12/18 05:12:03;;;;;;;5.50;2.33;;;-4.10;99.90;;;;;;5003538;28;20502;-77
2022/12/18 05:14:29;;;;;;;7.57;3.50;;;-4.00;99.90;;;;;;4988747;28;20394;-77
2022/12/18 05:16:54;;;;;;;6.07;3.05;;;-4.10;99.90;;;;;;4986086;28;20039;-78
2022/12/18 05:19:20;;;;;;;5.75;3.20;;;-4.00;99.90;;;;;;4987504;28;20485;-77
2022/12/18 05:21:45;;;;;;;5.95;3.15;;;-4.00;99.90;;;;;;4968948;28;20129;-77
2022/12/18 05:24:11;;;;;;;6.38;3.10;;;-4.00;99.90;;;;;;4971486;28;20101;-77
2022/12/18 05:26:37;;;;;;;6.10;2.83;;;-4.00;99.90;;;;;;4986774;28;20030;-77
2022/12/18 05:29:02;;;;;;;6.00;3.13;;;-3.90;99.90;;;;;;4970477;28;20113;-77
2022/12/18 05:31:28;;;;;;;6.65;3.75;;;-3.90;99.90;;;;;;4987510;28;20030;-77
2022/12/18 05:33:54;;;;;;;5.35;2.70;;;-3.90;99.90;;;;;;4954493;28;20038;-77
2022/12/18 05:36:20;;;;;;;5.20;2.58;;;-3.90;99.90;;;;;;4990147;28;20577;-77
2022/12/18 05:38:45;;;;;;;7.30;3.22;;;-4.00;99.90;;;;;;4955199;28;20113;-76
2022/12/18 05:41:11;;;;;;;5.15;2.75;;;-3.90;99.90;;;;;;4972207;28;20030;-77
2022/12/18 05:43:37;;;;;;;8.68;2.97;;;-3.90;99.90;;;;;;5003971;28;20037;-78
2022/12/18 05:46:07;;;;;;;6.05;3.17;;;-3.90;99.90;;;;;;4971444;28;20069;-77
2022/12/18 05:48:33;;;;;;;5.22;2.85;;;-3.90;99.90;;;;;;4983917;28;20038;-78
2022/12/18 05:51:04;;;;;;;6.65;3.08;;;-4.00;99.90;;;;;;4968309;28;20030;-77
2022/12/18 05:53:29;;;;;;;5.47;3.00;;;-4.00;99.90;;;;;;5002290;28;20121;-77
2022/12/18 05:56:00;;;;;;;3.85;2.53;;;-3.90;99.90;;;;;;4990657;28;20046;-77
2022/12/18 05:58:25;;;;;;;8.32;3.13;;;-3.90;99.90;;;;;;4986618;28;20181;-77
2022/12/18 06:00:51;;;;;;;5.68;2.90;;;-3.90;99.90;;;;;;4984943;28;20491;-77
2022/12/18 06:03:16;;;;;;;6.13;3.22;;;-3.90;99.90;;;;;;4981993;28;20442;-77
2022/12/18 06:05:43;;;;;;;7.40;3.33;;;-3.90;99.90;;;;;;4984515;28;20494;-78
2022/12/18 06:08:09;;;;;;;7.60;3.65;;;-3.80;99.90;;;;;;4982747;28;20513;-77
2022/12/18 06:10:34;;;;;;;5.55;2.53;;;-3.80;99.90;;;;;;4977646;28;21433;-78
2022/12/18 06:13:00;;;;;;;4.63;2.47;;;-3.80;99.90;;;;;;4969076;28;20038;-77
2022/12/18 06:15:25;;;;;;;7.10;3.33;;;-3.80;99.90;;;;;;4950685;28;20030;-77
2022/12/18 06:17:51;;;;;;;7.78;3.78;;;-3.80;99.90;;;;;;4967684;28;20671;-77
2022/12/18 06:20:17;;;;;;;3.75;1.85;;;-3.80;99.90;;;;;;4985947;28;20030;-77
2022/12/18 06:22:42;;;;;;;3.63;1.88;;;-3.80;99.90;;;;;;4986586;28;20096;-77
2022/12/18 06:25:08;;;;;;;6.50;2.05;;;-3.70;99.90;;;;;;4986457;28;20106;-78
2022/12/18 06:27:35;;;;;;;6.38;3.30;;;-3.80;99.90;;;;;;5002950;28;20033;-78
2022/12/18 06:30:00;;;;;;;4.60;2.72;;;-3.70;99.90;;;;;;4983081;28;20054;-77
2022/12/18 06:32:26;;;;;;;8.25;3.13;;;-3.60;99.90;;;;;;4986129;28;20523;-78
2022/12/18 06:34:53;;;;;;;8.63;3.05;;;-3.80;99.90;;;;;;4955004;28;20122;-85
2022/12/18 06:37:18;;;;;;;6.30;3.30;;;-3.70;99.90;;;;;;5002293;28;20035;-83
2022/12/18 06:39:44;;;;;;;9.00;4.05;;;-3.80;99.90;;;;;;4970691;28;20041;-84
2022/12/18 06:42:09;;;;;;;7.18;3.60;;;-3.90;99.90;;;;;;4971514;28;20080;-84
2022/12/18 06:44:35;;;;;;;6.97;3.35;;;-3.90;99.90;;;;;;5004154;28;20031;-85
2022/12/18 06:47:02;;;;;;;6.75;3.17;;;-4.00;99.90;;;;;;4987752;28;20030;-84
2022/12/18 06:49:27;;;;;;;8.18;3.80;;;-4.10;99.90;;;;;;5004208;28;20050;-85
2022/12/18 06:51:53;;;;;;;8.90;3.92;;;-4.00;99.90;;;;;;4971856;28;20027;-85
2022/12/18 06:54:18;;;;;;;5.78;3.00;;;-4.10;99.90;;;;;;5009576;28;20041;-84
2022/12/18 06:56:45;;;;;;;6.93;3.17;;;-4.10;99.90;;;;;;4993588;28;20121;-85
2022/12/18 06:59:12;;;;;;;5.80;3.03;;;-4.10;99.90;;;;;;5009767;28;20528;-85
2022/12/18 07:01:37;;;;;;;4.65;2.28;;;-4.00;99.90;;;;;;4993720;28;20038;-83
2022/12/18 07:04:03;;;;;;;7.35;2.88;;;-3.90;99.90;;;;;;5009242;28;20100;-85
2022/12/18 07:06:28;;;;;;;6.95;2.85;;;-3.80;99.90;;;;;;5009875;28;20131;-84
2022/12/18 07:08:54;;;;;;;8.73;3.55;;;-3.90;99.90;;;;;;4960843;28;20065;-78
2022/12/18 07:11:19;;;;;;;6.43;2.60;;;-3.90;99.90;;;;;;5008838;28;20093;-78
2022/12/18 07:13:45;;;;;;;7.78;3.55;;;-3.80;99.90;;;;;;4981515;28;20061;-77
2022/12/18 07:16:18;;;;;;;2.50;1.20;;;-3.70;99.90;;;;;;4954753;28;20195;-77
2022/12/18 07:18:44;;;;;;;5.72;2.92;;;-3.70;99.90;;;;;;5006373;28;20061;-78
2022/12/18 07:21:11;;;;;;;4.20;1.95;;;-3.70;99.90;;;;;;4969963;28;20054;-77
2022/12/18 07:23:37;;;;;;;4.15;1.73;;;-3.60;99.90;;;;;;4987627;28;20037;-78
2022/12/18 07:26:07;;;;;;;8.55;3.75;;;-3.50;99.90;;;;;;4973783;28;20399;-77
2022/12/18 07:28:33;;;;;;;7.40;3.08;;;-3.40;99.90;;;;;;4965101;28;20038;-78
2022/12/18 07:31:05;;;;;;;6.72;2.33;;;-3.40;99.90;;;;;;4971212;28;20101;-77
2022/12/18 07:33:31;;;;;;;2.85;1.55;;;-3.30;99.90;;;;;;4987678;28;20054;-77
2022/12/18 07:36:03;;;;;;;2.70;1.42;;;-3.30;99.90;;;;;;4988364;28;20112;-77
2022/12/18 07:38:28;;;;;;;7.05;3.28;;;-3.20;99.90;;;;;;5007347;28;20026;-78
2022/12/18 07:40:54;;;;;;;3.30;2.03;;;-3.20;99.90;;;;;;4970710;28;20523;-77
2022/12/18 07:43:19;;;;;;;6.07;3.15;;;-3.20;99.90;;;;;;4970307;28;20030;-78
2022/12/18 07:45:45;;;;;;;9.50;3.50;;;-3.20;99.90;;;;;;4989029;28;20438;-77
2022/12/18 07:48:10;;;;;;;4.97;2.63;;;-3.30;99.90;;;;;;4991400;28;20517;-77
2022/12/18 07:50:37;;;;;;;4.57;2.13;;;-3.30;99.90;;;;;;5004688;28;20035;-78
2022/12/18 07:53:05;;;;;;;4.50;2.15;;;-3.20;99.90;;;;;;4974119;28;20030;-78
2022/12/18 07:55:31;;;;;;;4.50;1.88;;;-3.10;99.90;;;;;;4986895;28;20034;-78
2022/12/18 07:58:00;;;;;;;5.03;2.78;;;-3.10;99.90;;;;;;4976572;28;20031;-78
2022/12/18 08:00:25;;;;;;;6.82;3.10;;;-2.90;99.90;;;;;;4990912;28;20033;-78
2022/12/18 08:02:53;;;;;;;8.05;3.63;;;-3.00;99.90;;;;;;4955671;28;20478;-78
2022/12/18 08:05:18;;;;;;;5.47;2.53;;;-2.90;99.90;;;;;;4956417;28;20041;-78
2022/12/18 08:07:44;;;;;;;5.30;2.97;;;-2.80;99.90;;;;;;5004433;28;20042;-77
2022/12/18 08:10:09;;;;;;;5.80;2.75;;;-2.60;99.90;;;;;;4988169;28;20041;-77
2022/12/18 08:12:35;;;;;;;5.90;2.58;;;-2.50;99.90;;;;;;4986948;28;20402;-78
2022/12/18 08:15:00;;;;;;;2.05;1.23;;;-2.60;99.90;;;;;;4969292;28;20045;-77
2022/12/18 08:17:26;;;;;;;7.28;3.42;;;-2.50;99.90;;;;;;5004354;28;20551;-77
2022/12/18 08:19:51;;;;;;;7.55;3.70;;;-2.40;99.90;;;;;;4988316;28;20061;-77
2022/12/18 08:22:17;;;;;;;7.55;3.65;;;-2.40;99.90;;;;;;4956730;28;20085;-77
2022/12/18 08:24:43;;;;;;;6.68;2.30;;;-2.30;99.90;;;;;;4971169;28;20030;-77
2022/12/18 08:27:09;;;;;;;7.78;3.25;;;-2.20;99.90;;;;;;4984600;28;20046;-77
2022/12/18 08:29:35;;;;;;;5.97;2.55;;;-2.20;99.90;;;;;;4972146;28;20036;-77
2022/12/18 08:32:00;;;;;;;6.78;3.17;;;-2.00;99.90;;;;;;4988499;28;20039;-77
2022/12/18 08:34:26;;;;;;;5.32;2.75;;;-1.90;99.90;;;;;;4972713;28;20034;-78
2022/12/18 08:36:51;;;;;;;5.03;3.05;;;-1.70;99.90;;;;;;4962427;28;20046;-77
2022/12/18 08:39:17;;;;;;;3.70;2.22;;;-1.70;99.90;;;;;;5004340;28;20030;-78
2022/12/18 08:44:36;;;;;;;1.73;1.02;;;-1.60;99.90;;;;;;4985977;28;20030;-78
2022/12/18 08:44:37;;;;;;;4.95;2.30;;;-1.30;99.90;;;;;;4988105;28;20029;-79
2022/12/18 08:47:03;;;;;;;4.38;2.30;;;-1.20;99.90;;;;;;4987480;28;20058;-79
2022/12/18 08:49:28;;;;;;;6.82;1.73;;;-1.30;99.90;;;;;;4971375;28;20501;-78
2022/12/18 08:51:56;;;;;;;6.78;3.10;;;-1.00;99.90;;;;;;5005160;28;20125;-79
2022/12/18 08:54:22;;;;;;;3.17;1.60;;;-0.90;99.90;;;;;;4987293;28;20618;-78
2022/12/18 08:56:49;;;;;;;5.55;2.72;;;-0.90;99.90;;;;;;5002548;28;20168;-78
2022/12/18 08:59:15;;;;;;;5.47;2.55;;;-0.80;99.90;;;;;;4987745;28;20031;-78
2022/12/18 09:01:40;;;;;;;2.75;1.75;;;-0.70;99.90;;;;;;4985611;28;20038;-78
2022/12/18 09:04:07;;;;;;;2.35;1.58;;;-0.50;99.90;;;;;;4954239;28;20045;-78
2022/12/18 09:06:33;;;;;;;5.55;3.00;;;-0.40;99.90;;;;;;4951747;28;20034;-80
2022/12/18 09:08:59;;;;;;;5.65;2.63;;;-0.30;99.90;;;;;;5003610;28;20521;-78
2022/12/18 09:11:25;;;;;;;4.57;2.33;;;-0.30;99.90;;;;;;4974440;28;20030;-79
2022/12/18 09:13:51;;;;;;;4.30;2.10;;;-0.30;99.90;;;;;;4987642;28;20030;-78
2022/12/18 09:16:17;;;;;;;4.57;1.90;;;-0.20;99.90;;;;;;4931853;28;20041;-78
2022/12/18 09:18:42;;;;;;;5.10;2.38;;;-0.10;99.90;;;;;;4968648;28;20041;-78
2022/12/18 09:21:10;;;;;;;6.50;3.63;;;-0.10;99.90;;;;;;4970050;28;20038;-78
2022/12/18 09:23:35;;;;;;;2.10;1.23;;;0.00;99.90;;;;;;4982675;28;20121;-78
2022/12/18 09:26:01;;;;;;;4.72;2.38;;;0.10;99.90;;;;;;5001920;28;20129;-78
2022/12/18 09:28:27;;;;;;;4.35;2.33;;;0.20;99.90;;;;;;4970427;28;20027;-78
2022/12/18 09:30:52;;;;;;;5.38;2.95;;;0.00;99.90;;;;;;4984288;28;20481;-78
2022/12/18 09:33:18;;;;;;;4.18;2.28;;;0.00;99.90;;;;;;4974006;28;20190;-79
2022/12/18 09:35:45;;;;;;;3.53;2.22;;;0.10;99.90;;;;;;4987713;28;20069;-78
2022/12/18 09:38:15;;;;;;;4.15;2.28;;;0.40;99.90;;;;;;5001642;28;20027;-78
2022/12/18 09:40:49;;;;;;;4.25;2.08;;;0.60;99.90;;;;;;4969294;28;20033;-78
2022/12/18 09:43:21;;;;;;;4.63;1.30;;;0.60;99.90;;;;;;4967920;28;20370;-78
2022/12/18 09:45:50;;;;;;;3.95;2.10;;;0.70;99.90;;;;;;4998793;28;20394;-77
2022/12/18 09:48:26;;;;;;;2.80;2.03;;;0.60;99.90;;;;;;5001050;28;20034;-77
2022/12/18 09:50:52;;;;;;;5.38;2.25;;;0.80;99.90;;;;;;4966920;28;20058;-78
2022/12/18 09:53:23;;;;;;;5.90;2.42;;;0.90;99.90;;;;;;4984853;28;20115;-78
2022/12/18 09:55:49;;;;;;;4.40;1.70;;;1.00;99.90;;;;;;4967332;28;20042;-78
2022/12/18 09:58:45;;;;;;;5.65;2.95;;;1.00;99.90;;;;;;4975356;28;20045;-79
2022/12/18 10:01:20;;;;;;;5.00;2.30;;;1.10;99.90;;;;;;4979930;28;20397;-79
2022/12/18 10:03:46;;;;;;;3.38;2.13;;;1.00;99.90;;;;;;4970279;28;20050;-79
2022/12/18 10:06:15;;;;;;;5.75;2.72;;;0.80;99.90;;;;;;4980205;28;20038;-79
2022/12/18 10:09:00;;;;;;;5.30;2.65;;;1.00;99.90;;;;;;4960886;28;20045;-79
2022/12/18 10:11:40;;;;;;;4.90;2.50;;;1.00;99.90;;;;;;4953406;28;20056;-79
2022/12/18 10:14:06;;;;;;;5.82;2.30;;;1.10;99.90;;;;;;4964410;28;20044;-79
2022/12/18 10:16:47;;;;;;;4.10;2.70;;;1.20;99.90;;;;;;4984146;28;20109;-79
2022/12/18 10:19:49;;;;;;;1.60;1.00;;;1.10;99.90;;;;;;4969910;28;20030;-78
2022/12/18 10:22:31;;;;;;;3.88;1.63;;;1.30;99.90;;;;;;4983898;28;20367;-79
2022/12/18 10:25:15;;;;;;;5.97;2.40;;;1.40;99.90;;;;;;4986701;28;20092;-79
2022/12/18 10:27:41;;;;;;;4.35;2.40;;;1.40;99.90;;;;;;4981088;28;20578;-78
2022/12/18 10:30:17;;;;;;;5.40;2.65;;;1.40;99.90;;;;;;4985503;28;20031;-79
2022/12/18 10:32:43;;;;;;;4.13;2.20;;;1.40;99.90;;;;;;4984379;28;20154;-79
2022/12/18 10:35:18;;;;;;;2.17;1.50;;;1.40;99.90;;;;;;4982900;28;20494;-79
2022/12/18 10:38:12;;;;;;;5.70;2.33;;;1.50;99.90;;;;;;4967267;28;20049;-79
2022/12/18 10:41:09;;;;;;;5.45;2.60;;;1.60;99.90;;;;;;4969115;28;20057;-79
2022/12/18 10:43:35;;;;;;;;;;;1.60;99.90;;;;;;4985986;28;20201;-80
2022/12/18 10:46:11;;;;;;;3.58;2.63;;;1.70;99.90;;;;;;4983029;28;20293;-79
2022/12/18 10:48:57;;;;;;;2.72;1.63;;;1.50;99.90;;;;;;4975137;28;20026;-79
2022/12/18 10:51:33;;;;;;;3.72;2.67;;;1.70;99.90;;;;;;4982400;28;20038;-79
2022/12/18 10:54:25;;;;;;;4.30;2.38;;;1.50;99.90;;;;;;4982243;28;20115;-79
2022/12/18 10:56:51;;;;;;;6.00;2.53;;;1.60;99.90;;;;;;4998611;28;20129;-79
2022/12/18 10:59:17;;;;;;;6.35;2.88;;;1.60;99.90;;;;;;4985770;28;20156;-79
2022/12/18 11:01:54;;;;;;;4.78;3.35;;;1.70;99.90;;;;;;4998309;28;20115;-79
2022/12/18 11:04:27;;;;;;;5.35;3.28;;;1.80;99.90;;;;;;4984229;28;20510;-79
2022/12/18 11:06:57;;;;;;;4.03;2.70;;;1.90;99.90;;;;;;4968767;28;20038;-79
2022/12/18 11:09:24;;;;;;;4.88;2.95;;;1.60;99.90;;;;;;4984632;28;20034;-79
2022/12/18 11:11:52;;;;;;;6.05;3.08;;;1.90;99.90;;;;;;4981464;28;20486;-80
2022/12/18 11:14:27;;;;;;;4.65;2.83;;;1.90;99.90;;;;;;4971648;28;20469;-79
2022/12/18 11:16:53;;;;;;;5.15;2.78;;;2.00;99.90;;;;;;4960484;28;20038;-80
2022/12/18 11:19:37;;;;;;;6.32;3.15;;;2.00;99.90;;;;;;4983719;28;20030;-80
2022/12/18 11:22:24;;;;;;;3.72;2.13;;;1.90;99.90;;;;;;4976659;28;20125;-80
2022/12/18 11:25:04;;;;;;;5.75;2.97;;;2.10;99.90;;;;;;4980386;28;20051;-80
2022/12/18 11:27:29;;;;;;;8.95;2.83;;;2.20;99.90;;;;;;4964765;28;20031;-79
2022/12/18 11:30:08;;;;;;;5.65;3.05;;;2.20;99.90;;;;;;4986206;28;20081;-80
2022/12/18 11:32:39;;;;;;;7.28;3.00;;;2.00;99.90;;;;;;4999356;28;20030;-80
2022/12/18 11:35:23;;;;;;;4.65;2.50;;;2.10;99.90;;;;;;5000709;28;20502;-80
2022/12/18 11:37:58;;;;;;;5.22;2.40;;;2.30;99.90;;;;;;4984292;28;20409;-80
2022/12/18 11:40:38;;;;;;;6.53;2.75;;;2.30;99.90;;;;;;4988668;28;20041;-80
2022/12/18 11:43:25;;;;;;;6.10;2.90;;;2.30;99.90;;;;;;4989062;28;20030;-81
2022/12/18 11:46:02;;;;;;;8.32;3.92;;;2.20;99.90;;;;;;4987254;28;20042;-80
2022/12/18 11:48:30;;;;;;;4.78;1.95;;;2.20;99.90;;;;;;5003305;28;20037;-79
2022/12/18 11:50:56;;;;;;;5.85;3.20;;;2.20;99.90;;;;;;4986199;28;20386;-80
2022/12/18 11:53:22;;;;;;;4.97;3.10;;;2.20;99.90;;;;;;4955648;28;20053;-80
2022/12/18 11:56:15;;;;;;;6.38;3.20;;;2.30;99.90;;;;;;4948038;28;20037;-81
2022/12/18 11:58:46;;;;;;;5.82;2.95;;;2.30;99.90;;;;;;4989726;28;20812;-80
2022/12/18 12:01:30;;;;;;;7.15;3.15;;;2.40;99.90;;;;;;4985307;28;20042;-80
2022/12/18 12:04:14;;;;;;;6.03;3.35;;;2.40;99.90;;;;;;4998145;28;20109;-80
2022/12/18 12:06:52;;;;;;;7.47;2.85;;;2.50;99.90;;;;;;4984175;28;20031;-80
2022/12/18 12:09:27;;;;;;;7.20;3.22;;;2.40;99.90;;;;;;4974195;28;20545;-80
2022/12/18 12:12:49;;;;;;;8.30;3.80;;;2.40;99.90;;;;;;4995537;28;20089;-80
2022/12/18 12:15:35;;;;;;;6.50;3.47;;;2.40;99.90;;;;;;4970020;28;20053;-81
2022/12/18 12:18:40;;;;;;;5.25;3.20;;;2.50;99.90;;;;;;4988234;28;20460;-80
2022/12/18 12:21:20;;;;;;;4.60;2.88;;;2.50;99.90;;;;;;4986975;28;20022;-80
2022/12/18 12:23:57;;;;;;;7.72;3.65;;;2.50;99.90;;;;;;4986441;28;20038;-80
2022/12/18 12:26:51;;;;;;;7.32;3.88;;;2.50;99.90;;;;;;5002880;28;20458;-80
2022/12/18 12:29:37;;;;;;;7.28;3.92;;;2.50;99.90;;;;;;4986737;28;20121;-80
2022/12/18 12:32:10;;;;;;;7.32;3.92;;;2.50;99.90;;;;;;4982989;28;20026;-80
2022/12/18 12:35:10;;;;;;;7.07;4.00;;;2.50;99.90;;;;;;5001066;28;20456;-80
2022/12/18 12:38:00;;;;;;;6.03;3.22;;;2.60;99.90;;;;;;4965254;28;20038;-80
2022/12/18 12:40:27;;;;;;;9.90;5.07;;;2.60;99.90;;;;;;4980831;28;20030;-80
2022/12/18 12:43:13;;;;;;;8.30;4.90;;;2.60;99.90;;;;;;4985943;28;20034;-80
2022/12/18 12:46:04;;;;;;;8.32;4.40;;;2.50;99.90;;;;;;4970720;28;20026;-80
2022/12/18 12:48:46;;;;;;;13.02;6.57;;;2.40;99.90;;;;;;4983120;28;20509;-80
2022/12/18 12:51:24;;;;;;;12.15;5.78;;;2.40;99.90;;;;;;4996933;28;20498;-80
2022/12/18 12:53:50;;;;;;;9.77;5.20;;;2.50;99.90;;;;;;4968818;28;20045;-80
2022/12/18 12:56:17;;;;;;;8.02;3.67;;;2.50;99.90;;;;;;4294387;28;10000372;-80
2022/12/18 12:59:05;;;;;;;11.15;4.53;;;2.70;99.90;;;;;;4968065;28;20058;-79
2022/12/18 13:01:30;;;;;;;11.93;5.45;;;2.50;99.90;;;;;;4982962;28;20193;-80
2022/12/18 13:04:20;;;;;;;10.30;4.80;;;2.60;99.90;;;;;;4980401;28;20113;-79